Time;durP1;ratioP1;P1;durP2;ratioP2;P2;SDS_P1;SDS_P2;PMS_P1;PMS_P2;Temp;Humidity;BMP_temperature;BMP_pressure;BME280_temperature;BME280_humidity;BME280_pressure;Samples;Min_cycle;Max_cycle;Signal;HPM_P1;HPM_P2
2023/05/21 00:00:14;;;;;;;;;16.00;15.00;;;;;;;;1996465;28;3548115;-71
2023/05/21 00:01:25;;;;;;;;;17.20;15.20;;;;;;;;1988990;28;3550714;-71
2023/05/21 00:02:38;;;;;;;;;15.60;14.20;;;;;;;;1994649;28;3535997;-71
2023/05/21 00:03:49;;;;;;;;;13.80;13.00;;;;;;;;1981052;28;3536652;-71
2023/05/21 00:05:01;;;;;;;;;20.80;18.00;;;;;;;;1994565;28;3562714;-71
2023/05/21 00:06:14;;;;;;;;;19.20;15.40;;;;;;;;1992559;28;3551235;-71
2023/05/21 00:07:28;;;;;;;;;14.29;13.29;;;;;;;;1997233;28;1831611;-71
2023/05/21 00:08:39;;;;;;;;;13.33;13.33;;;;;;;;1967950;28;3527341;-71
2023/05/21 00:09:51;;;;;;;;;16.20;14.20;;;;;;;;1989430;28;3535631;-71
2023/05/21 00:11:03;;;;;;;;;18.67;16.00;;;;;;;;1969957;28;3566888;-71
2023/05/21 00:12:15;;;;;;;;;19.00;18.29;;;;;;;;1988350;28;3560665;-71
2023/05/21 00:13:27;;;;;;;;;19.60;15.00;;;;;;;;1995909;28;3549184;-71
2023/05/21 00:14:39;;;;;;;;;13.00;11.80;;;;;;;;1995424;28;3511718;-71
2023/05/21 00:15:52;;;;;;;;;14.57;14.57;;;;;;;;1992157;28;2804503;-71
2023/05/21 00:17:02;;;;;;;;;16.00;14.00;;;;;;;;1967123;28;2810126;-71
2023/05/21 00:18:15;;;;;;;;;17.60;15.00;;;;;;;;1969912;28;3541876;-71
2023/05/21 00:19:26;;;;;;;;;15.33;15.33;;;;;;;;1970350;28;3544084;-71
2023/05/21 00:20:40;;;;;;;;;21.29;18.57;;;;;;;;1991660;28;3568978;-71
2023/05/21 00:21:50;;;;;;;;;17.50;14.00;;;;;;;;1945446;28;2805546;-71
2023/05/21 00:23:03;;;;;;;;;21.60;16.80;;;;;;;;1994006;28;3571057;-71
2023/05/21 00:24:14;;;;;;;;;19.60;17.00;;;;;;;;1979442;28;3565833;-71
2023/05/21 00:25:26;;;;;;;;;16.20;16.20;;;;;;;;1995259;28;3559597;-71
2023/05/21 00:26:39;;;;;;;;;19.00;15.86;;;;;;;;1992091;28;3552348;-71
2023/05/21 00:27:51;;;;;;;;;19.80;18.00;;;;;;;;1996094;28;3562702;-71
2023/05/21 00:29:03;;;;;;;;;13.60;12.80;;;;;;;;1996640;28;3527271;-71
2023/05/21 00:30:15;;;;;;;;;19.80;17.80;;;;;;;;1991587;28;3562707;-71
2023/05/21 00:31:26;;;;;;;;;20.00;16.67;;;;;;;;1966675;28;3568983;-71
2023/05/21 00:32:38;;;;;;;;;20.80;17.20;;;;;;;;1995102;28;3558578;-71
2023/05/21 00:33:50;;;;;;;;;15.80;15.20;;;;;;;;1994972;28;3538112;-71
2023/05/21 00:35:03;;;;;;;;;18.43;14.57;;;;;;;;1989227;28;3552366;-71
2023/05/21 00:36:15;;;;;;;;;15.33;15.00;;;;;;;;1984210;28;3539231;-71
2023/05/21 00:37:31;;;;;;;;;20.00;18.60;;;;;;;;1991306;28;3562841;-71
2023/05/21 00:38:42;;;;;;;;;15.00;15.00;;;;;;;;1969673;28;2810995;-71
2023/05/21 00:39:53;;;;;;;;;14.50;13.00;;;;;;;;1948565;28;2799175;-71
2023/05/21 00:41:04;;;;;;;;;22.00;19.20;;;;;;;;1973983;28;3566907;-71
2023/05/21 00:42:17;;;;;;;;;21.40;18.40;;;;;;;;1977971;28;2830428;-71
2023/05/21 00:43:28;;;;;;;;;17.00;13.00;;;;;;;;1967613;28;3534605;-71
2023/05/21 00:44:40;;;;;;;;;23.80;20.00;;;;;;;;1996504;28;3589772;-71
2023/05/21 00:45:52;;;;;;;;;19.80;17.80;;;;;;;;1971154;28;3561661;-71
2023/05/21 00:47:05;;;;;;;;;20.40;18.40;;;;;;;;1976639;28;3573121;-71
2023/05/21 00:48:16;;;;;;;;;17.33;17.33;;;;;;;;1943066;28;3562753;-71
2023/05/21 00:49:29;;;;;;;;;21.60;19.40;;;;;;;;1969357;28;3570105;-71
2023/05/21 00:50:40;;;;;;;;;15.00;14.00;;;;;;;;1970632;28;2792928;-71
2023/05/21 00:51:51;;;;;;;;;16.33;14.33;;;;;;;;1945501;28;3537893;-71
2023/05/21 00:53:03;;;;;;;;;18.00;18.00;;;;;;;;1982022;28;3575237;-71
2023/05/21 00:54:15;;;;;;;;;23.20;18.80;;;;;;;;1962882;28;3573134;-71
2023/05/21 00:55:27;;;;;;;;;20.40;20.40;;;;;;;;1996440;28;3574175;-71
2023/05/21 00:56:40;;;;;;;;;17.14;17.14;;;;;;;;1989112;28;3566900;-71
2023/05/21 00:57:52;;;;;;;;;21.60;19.80;;;;;;;;1962095;28;3583535;-71
2023/05/21 00:59:04;;;;;;;;;17.40;14.00;;;;;;;;1973066;28;3538735;-71
2023/05/21 01:00:16;;;;;;;;;20.80;20.00;;;;;;;;1980663;28;3566885;-71
2023/05/21 01:01:32;;;;;;;;;22.60;21.20;;;;;;;;1993465;28;3571602;-71
2023/05/21 01:02:44;;;;;;;;;21.33;19.67;;;;;;;;1942306;28;3576220;-71
2023/05/21 01:03:56;;;;;;;;;19.00;17.50;;;;;;;;1972057;28;2831481;-71
2023/05/21 01:05:07;;;;;;;;;20.00;17.67;;;;;;;;1949669;28;2831481;-71
2023/05/21 01:06:19;;;;;;;;;21.00;16.50;;;;;;;;1971418;28;2827361;-71
2023/05/21 01:07:33;;;;;;;;;22.67;19.33;;;;;;;;1944396;28;3566911;-71
2023/05/21 01:08:44;;;;;;;;;24.50;22.50;;;;;;;;1969262;28;2846595;-71
2023/05/21 01:09:55;;;;;;;;;22.40;17.40;;;;;;;;1957342;28;3572079;-71
2023/05/21 01:11:07;;;;;;;;;21.80;20.60;;;;;;;;1977932;28;2834590;-71
2023/05/21 01:12:18;;;;;;;;;20.50;17.00;;;;;;;;1969153;28;2830478;-71
2023/05/21 01:13:30;;;;;;;;;18.00;17.67;;;;;;;;1952844;28;3561711;-71
2023/05/21 01:14:41;;;;;;;;;21.40;19.20;;;;;;;;1980046;28;3575190;-71
2023/05/21 01:15:54;;;;;;;;;24.20;21.60;;;;;;;;1991867;28;3587696;-71
2023/05/21 01:17:09;;;;;;;;;17.67;16.00;;;;;;;;1958707;28;3558574;-71
2023/05/21 01:18:20;;;;;;;;;24.33;20.00;;;;;;;;1967425;28;3570043;-71
2023/05/21 01:19:34;;;;;;;;;22.60;19.20;;;;;;;;1956617;28;3569071;-71
2023/05/21 01:20:48;;;;;;;;;21.67;20.00;;;;;;;;1971433;28;2841905;-71
2023/05/21 01:22:00;;;;;;;;;23.67;19.67;;;;;;;;1973591;28;3577368;-71
2023/05/21 01:23:10;;;;;;;;;20.00;20.00;;;;;;;;1976120;28;2838772;-71
2023/05/21 01:24:21;;;;;;;;;21.40;20.20;;;;;;;;1954816;28;2837838;-71
2023/05/21 01:25:31;;;;;;;;;22.50;21.00;;;;;;;;1970387;28;2506521;-71
2023/05/21 01:26:45;;;;;;;;;20.20;20.20;;;;;;;;1973963;28;3564805;-71
2023/05/21 01:27:56;;;;;;;;;19.67;14.67;;;;;;;;1965771;28;3563241;-71
2023/05/21 01:29:11;;;;;;;;;22.80;20.80;;;;;;;;1947549;28;2844436;-71
2023/05/21 01:30:23;;;;;;;;;22.67;20.67;;;;;;;;1967359;28;3590842;-71
2023/05/21 01:31:57;;;;;;;;;22.00;17.00;;;;;;;;1947343;28;2825255;-71
2023/05/21 01:33:08;;;;;;;;;20.00;20.00;;;;;;;;1977392;28;2848279;-71
2023/05/21 01:34:22;;;;;;;;;20.40;19.40;;;;;;;;1972518;28;3568947;-71
2023/05/21 01:35:35;;;;;;;;;24.67;21.00;;;;;;;;1968229;28;3576294;-71
2023/05/21 01:36:48;;;;;;;;;21.00;20.00;;;;;;;;1948676;28;2831550;-71
2023/05/21 01:38:03;;;;;;;;;18.00;18.00;;;;;;;;1946956;28;2829508;-71
2023/05/21 01:39:19;;;;;;;;;23.67;20.00;;;;;;;;1942224;28;3570023;-71
2023/05/21 01:40:44;;;;;;;;;23.33;20.33;;;;;;;;1946177;28;3570458;-71
2023/05/21 01:41:56;;;;;;;;;20.00;17.67;;;;;;;;1967131;28;3562798;-71
2023/05/21 01:43:08;;;;;;;;;22.00;20.00;;;;;;;;1944383;28;3575248;-71
2023/05/21 01:44:20;;;;;;;;;24.00;22.33;;;;;;;;1943827;28;3579431;-71
2023/05/21 01:45:33;;;;;;;;;19.67;19.67;;;;;;;;1945162;28;3573202;-71
2023/05/21 01:46:43;;;;;;;;;18.50;18.00;;;;;;;;1947369;28;2823164;-71
2023/05/21 01:47:56;;;;;;;;;23.20;21.20;;;;;;;;1991928;28;3577792;-71
2023/05/21 01:49:07;;;;;;;;;22.00;20.00;;;;;;;;1968560;28;3572122;-71
2023/05/21 01:50:21;;;;;;;;;23.80;21.80;;;;;;;;1963384;28;3576263;-71
2023/05/21 01:51:32;;;;;;;;;21.33;18.67;;;;;;;;1948660;28;2835636;-71
2023/05/21 01:52:48;;;;;;;;;22.00;20.33;;;;;;;;1965710;28;3570052;-71
2023/05/21 01:53:58;;;;;;;;;19.50;19.00;;;;;;;;1946088;28;2832593;-71
2023/05/21 01:55:10;;;;;;;;;20.80;20.60;;;;;;;;1970493;28;3574151;-71
2023/05/21 01:56:24;;;;;;;;;25.20;20.20;;;;;;;;1997198;28;3584560;-71
2023/05/21 01:57:35;;;;;;;;;24.00;22.00;;;;;;;;1945909;28;3580494;-71
2023/05/21 01:58:48;;;;;;;;;27.00;21.80;;;;;;;;1973150;28;3584576;-71
2023/05/21 02:00:00;;;;;;;;;26.67;23.33;;;;;;;;1943930;28;3587778;-71
2023/05/21 02:01:12;;;;;;;;;24.00;23.00;;;;;;;;1951546;28;3581557;-71
2023/05/21 02:02:24;;;;;;;;;28.60;19.40;;;;;;;;1972867;28;3610624;-71
2023/05/21 02:03:34;;;;;;;;;26.20;22.60;;;;;;;;1955784;28;2848260;-71
2023/05/21 02:04:46;;;;;;;;;27.40;24.60;;;;;;;;1975165;28;3598136;-71
2023/05/21 02:05:58;;;;;;;;;25.60;20.20;;;;;;;;1957396;28;3586673;-71
2023/05/21 02:07:10;;;;;;;;;28.20;23.80;;;;;;;;1973196;28;3590314;-71
2023/05/21 02:08:22;;;;;;;;;25.80;20.20;;;;;;;;1967609;28;3584560;-71
2023/05/21 02:09:33;;;;;;;;;25.80;22.80;;;;;;;;1975947;28;2840937;-71
2023/05/21 02:10:45;;;;;;;;;23.60;21.20;;;;;;;;1994661;28;3574160;-71
2023/05/21 02:11:57;;;;;;;;;28.20;25.60;;;;;;;;1994589;28;3603337;-71
2023/05/21 02:13:10;;;;;;;;;29.38;25.13;;;;;;;;1966327;28;3597168;-71
2023/05/21 02:14:21;;;;;;;;;26.50;25.00;;;;;;;;1969489;28;2848182;-71
2023/05/21 02:15:33;;;;;;;;;25.40;22.60;;;;;;;;1953650;28;2841005;-71
2023/05/21 02:16:44;;;;;;;;;26.00;25.00;;;;;;;;1969307;28;3590111;-71
2023/05/21 02:17:57;;;;;;;;;25.20;22.60;;;;;;;;1974232;28;3587712;-71
2023/05/21 02:19:09;;;;;;;;;23.00;22.67;;;;;;;;1949308;28;3589822;-71
2023/05/21 02:20:21;;;;;;;;;24.50;21.50;;;;;;;;1947520;28;2843009;-71
2023/05/21 02:21:32;;;;;;;;;33.33;24.00;;;;;;;;1943635;28;3604405;-71
2023/05/21 02:22:45;;;;;;;;;25.00;22.80;;;;;;;;1972403;28;3583899;-71
2023/05/21 02:23:56;;;;;;;;;27.67;25.67;;;;;;;;1943688;28;3593998;-71
2023/05/21 02:25:09;;;;;;;;;26.20;25.40;;;;;;;;1972829;28;3576350;-71
2023/05/21 02:26:21;;;;;;;;;26.50;23.00;;;;;;;;1943587;28;2506470;-71
2023/05/21 02:27:31;;;;;;;;;23.50;23.50;;;;;;;;1946648;28;2849700;-71
2023/05/21 02:28:43;;;;;;;;;27.40;25.20;;;;;;;;1949990;28;2838906;-71
2023/05/21 02:29:54;;;;;;;;;23.00;23.00;;;;;;;;1973847;28;3575658;-71
2023/05/21 02:31:05;;;;;;;;;22.40;20.00;;;;;;;;1955936;28;2831493;-71
2023/05/21 02:32:16;;;;;;;;;22.20;22.20;;;;;;;;1974594;28;3582504;-71
2023/05/21 02:33:28;;;;;;;;;26.00;23.80;;;;;;;;1996840;28;3577639;-71
2023/05/21 02:34:43;;;;;;;;;27.88;25.38;;;;;;;;1969180;28;3587705;-71
2023/05/21 02:35:54;;;;;;;;;27.50;26.50;;;;;;;;1969422;28;2851323;-71
2023/05/21 02:37:05;;;;;;;;;23.60;20.20;;;;;;;;1951732;28;2840441;-71
2023/05/21 02:38:18;;;;;;;;;23.00;21.00;;;;;;;;1982703;28;3579368;-71
2023/05/21 02:39:28;;;;;;;;;21.00;17.00;;;;;;;;1947471;28;2829409;-71
2023/05/21 02:40:39;;;;;;;;;23.60;23.00;;;;;;;;1955385;28;2843035;-71
2023/05/21 02:41:51;;;;;;;;;23.00;20.00;;;;;;;;1966927;28;3580401;-71
2023/05/21 02:43:02;;;;;;;;;24.60;22.80;;;;;;;;1954607;28;2844112;-71
2023/05/21 02:44:13;;;;;;;;;22.20;18.60;;;;;;;;1976141;28;3558567;-71
2023/05/21 02:45:25;;;;;;;;;27.60;24.60;;;;;;;;1993178;28;3592900;-71
2023/05/21 02:46:38;;;;;;;;;29.14;24.14;;;;;;;;1969063;28;3596034;-71
2023/05/21 02:47:50;;;;;;;;;25.00;23.20;;;;;;;;1971274;28;3581447;-71
2023/05/21 02:49:01;;;;;;;;;24.20;23.00;;;;;;;;1977008;28;2846152;-71
2023/05/21 02:50:12;;;;;;;;;28.00;28.00;;;;;;;;1969550;28;2852309;-71
2023/05/21 02:51:23;;;;;;;;;24.00;23.33;;;;;;;;1944033;28;3582603;-71
2023/05/21 02:52:34;;;;;;;;;34.80;31.20;;;;;;;;1952749;28;2837756;-71
2023/05/21 02:53:46;;;;;;;;;27.67;25.00;;;;;;;;1972570;28;3582484;-71
2023/05/21 02:54:57;;;;;;;;;24.00;22.40;;;;;;;;1973243;28;3583549;-71
2023/05/21 02:56:11;;;;;;;;;23.75;23.75;;;;;;;;1968344;28;3592226;-71
2023/05/21 02:57:22;;;;;;;;;25.33;21.00;;;;;;;;1972998;28;3585637;-71
2023/05/21 02:58:36;;;;;;;;;28.38;26.75;;;;;;;;1973619;28;3591894;-71
2023/05/21 02:59:46;;;;;;;;;28.00;26.00;;;;;;;;1967919;28;2852418;-71
2023/05/21 03:00:58;;;;;;;;;24.80;22.60;;;;;;;;1970712;28;3571050;-71
2023/05/21 03:02:10;;;;;;;;;27.20;23.80;;;;;;;;1985906;28;3580452;-71
2023/05/21 03:03:22;;;;;;;;;27.00;23.80;;;;;;;;1967664;28;3589776;-71
2023/05/21 03:04:37;;;;;;;;;20.00;20.00;;;;;;;;1952559;28;2838817;-71
2023/05/21 03:05:48;;;;;;;;;24.50;23.00;;;;;;;;1969404;28;2844032;-71
2023/05/21 03:07:01;;;;;;;;;25.20;22.20;;;;;;;;1950953;28;2842020;-71
2023/05/21 03:08:12;;;;;;;;;23.67;22.67;;;;;;;;1967463;28;3576242;-71
2023/05/21 03:09:23;;;;;;;;;27.80;23.60;;;;;;;;1953602;28;2848275;-71
2023/05/21 03:10:33;;;;;;;;;26.50;25.00;;;;;;;;1970307;28;2846052;-71
2023/05/21 03:11:44;;;;;;;;;25.20;23.00;;;;;;;;1953562;28;2848252;-71
2023/05/21 03:12:55;;;;;;;;;31.40;25.00;;;;;;;;1973471;28;3607479;-71
2023/05/21 03:14:08;;;;;;;;;26.00;24.14;;;;;;;;1968573;28;3590252;-71
2023/05/21 03:15:22;;;;;;;;;27.80;22.20;;;;;;;;1967733;28;3590849;-71
2023/05/21 03:16:33;;;;;;;;;25.00;22.00;;;;;;;;1972314;28;2843972;-71
2023/05/21 03:17:45;;;;;;;;;27.20;25.20;;;;;;;;1957955;28;3586662;-71
2023/05/21 03:18:57;;;;;;;;;27.60;23.60;;;;;;;;1973329;28;3580404;-71
2023/05/21 03:20:14;;;;;;;;;27.00;24.00;;;;;;;;1971908;28;3580424;-71
2023/05/21 03:21:28;;;;;;;;;25.67;24.33;;;;;;;;1943932;28;3590849;-71
2023/05/21 03:22:39;;;;;;;;;23.50;21.00;;;;;;;;1946106;28;2832567;-71
2023/05/21 03:23:51;;;;;;;;;30.80;27.60;;;;;;;;1968841;28;3593962;-71
2023/05/21 03:25:03;;;;;;;;;26.33;24.67;;;;;;;;1966988;28;3596060;-71
2023/05/21 03:26:16;;;;;;;;;29.00;27.00;;;;;;;;1964602;28;3590818;-71
2023/05/21 03:27:28;;;;;;;;;25.67;23.67;;;;;;;;1964923;28;3596085;-71
2023/05/21 03:28:40;;;;;;;;;25.00;24.60;;;;;;;;1973343;28;3583538;-71
2023/05/21 03:29:54;;;;;;;;;28.00;24.40;;;;;;;;1953985;28;3585648;-71
2023/05/21 03:31:05;;;;;;;;;27.50;25.00;;;;;;;;1947247;28;2843976;-71
2023/05/21 03:32:16;;;;;;;;;28.33;26.00;;;;;;;;1953765;28;3586739;-71
2023/05/21 03:33:30;;;;;;;;;24.63;23.63;;;;;;;;1968481;28;3599210;-71
2023/05/21 03:34:41;;;;;;;;;30.67;26.33;;;;;;;;1965422;28;3604436;-71
2023/05/21 03:35:54;;;;;;;;;27.71;27.29;;;;;;;;1968142;28;3597082;-71
2023/05/21 03:37:05;;;;;;;;;29.20;27.20;;;;;;;;1947956;28;2854921;-71
2023/05/21 03:38:17;;;;;;;;;27.00;25.40;;;;;;;;1996512;28;3591943;-71
2023/05/21 03:39:31;;;;;;;;;28.50;27.75;;;;;;;;1991656;28;3591863;-71
2023/05/21 03:40:41;;;;;;;;;33.50;26.50;;;;;;;;1965716;28;2864859;-71
2023/05/21 03:41:53;;;;;;;;;30.00;26.60;;;;;;;;1976672;28;3589787;-71
2023/05/21 03:43:06;;;;;;;;;27.43;25.86;;;;;;;;1997468;28;3586652;-71
2023/05/21 03:44:20;;;;;;;;;34.88;29.38;;;;;;;;1968242;28;3599612;-71
2023/05/21 03:45:31;;;;;;;;;30.00;28.33;;;;;;;;1967298;28;3605439;-71
2023/05/21 03:46:44;;;;;;;;;26.00;23.40;;;;;;;;1955175;28;2844072;-71
2023/05/21 03:47:55;;;;;;;;;32.33;27.00;;;;;;;;1967832;28;3597079;-71
2023/05/21 03:49:07;;;;;;;;;29.40;28.20;;;;;;;;1972069;28;3593497;-71
2023/05/21 03:50:20;;;;;;;;;26.14;23.86;;;;;;;;1967865;28;3585653;-71
2023/05/21 03:51:32;;;;;;;;;27.80;25.80;;;;;;;;1972346;28;3591887;-71
2023/05/21 03:52:46;;;;;;;;;31.50;28.00;;;;;;;;1963919;28;3596085;-71
2023/05/21 03:54:00;;;;;;;;;33.00;26.33;;;;;;;;1964806;28;3598140;-71
2023/05/21 03:55:11;;;;;;;;;28.00;26.00;;;;;;;;1944692;28;3610718;-71
2023/05/21 03:56:23;;;;;;;;;25.60;25.00;;;;;;;;1973095;28;3586671;-71
2023/05/21 03:57:36;;;;;;;;;29.33;28.67;;;;;;;;1958420;28;3598143;-71
2023/05/21 03:58:47;;;;;;;;;24.33;23.00;;;;;;;;1944088;28;3580931;-71
2023/05/21 03:59:59;;;;;;;;;24.40;21.20;;;;;;;;1970687;28;3572507;-71
2023/05/21 04:01:12;;;;;;;;;39.00;31.80;;;;;;;;1994359;28;3595019;-71
2023/05/21 04:02:26;;;;;;;;;34.60;31.60;;;;;;;;1949007;28;3587690;-71
2023/05/21 04:03:37;;;;;;;;;33.67;31.33;;;;;;;;1969579;28;2845117;-71
2023/05/21 04:04:50;;;;;;;;;32.50;28.50;;;;;;;;1972221;28;2856550;-71
2023/05/21 04:06:02;;;;;;;;;31.33;29.00;;;;;;;;1947972;28;2852436;-71
2023/05/21 04:07:14;;;;;;;;;40.00;34.00;;;;;;;;1970767;28;2865858;-71
2023/05/21 04:08:25;;;;;;;;;33.00;30.00;;;;;;;;1943956;28;3610651;-71
2023/05/21 04:09:37;;;;;;;;;35.60;31.40;;;;;;;;1960272;28;3588737;-71
2023/05/21 04:10:49;;;;;;;;;38.00;33.00;;;;;;;;1972119;28;3593966;-71
2023/05/21 04:12:01;;;;;;;;;35.20;31.00;;;;;;;;1971245;28;3589807;-71
2023/05/21 04:13:12;;;;;;;;;36.00;33.00;;;;;;;;1947574;28;2860641;-71
2023/05/21 04:14:24;;;;;;;;;34.00;30.00;;;;;;;;1971588;28;3604367;-71
2023/05/21 04:15:37;;;;;;;;;36.40;33.20;;;;;;;;1974011;28;3598139;-71
2023/05/21 04:16:48;;;;;;;;;34.67;31.00;;;;;;;;1943345;28;3596118;-71
2023/05/21 04:18:00;;;;;;;;;38.00;34.40;;;;;;;;1988064;28;3584580;-71
2023/05/21 04:19:12;;;;;;;;;40.80;33.40;;;;;;;;1962685;28;3601278;-71
2023/05/21 04:20:24;;;;;;;;;40.20;32.80;;;;;;;;1972175;28;3604360;-70
2023/05/21 04:21:36;;;;;;;;;40.20;33.80;;;;;;;;1968595;28;3614778;-71
2023/05/21 04:22:48;;;;;;;;;42.40;35.40;;;;;;;;1971836;28;3593956;-71
2023/05/21 04:24:00;;;;;;;;;42.60;34.40;;;;;;;;1972423;28;3614787;-71
2023/05/21 04:25:12;;;;;;;;;40.60;34.20;;;;;;;;1972244;28;3612732;-71
2023/05/21 04:26:24;;;;;;;;;38.20;34.20;;;;;;;;1964528;28;3590837;-71
2023/05/21 04:27:36;;;;;;;;;42.40;35.40;;;;;;;;1972543;28;3611646;-71
2023/05/21 04:28:49;;;;;;;;;44.60;35.00;;;;;;;;1969100;28;3588761;-71
2023/05/21 04:29:59;;;;;;;;;40.50;33.00;;;;;;;;1947457;28;2860638;-71
2023/05/21 04:31:12;;;;;;;;;36.00;33.00;;;;;;;;1970652;28;3575351;-71
2023/05/21 04:32:23;;;;;;;;;31.00;27.50;;;;;;;;1946762;28;2857589;-71
2023/05/21 04:33:35;;;;;;;;;32.43;29.14;;;;;;;;1962206;28;3590854;-71
2023/05/21 04:34:47;;;;;;;;;34.40;30.00;;;;;;;;1972038;28;3608541;-71
2023/05/21 04:36:00;;;;;;;;;43.40;33.60;;;;;;;;1972505;28;3602279;-71
2023/05/21 04:37:11;;;;;;;;;35.33;32.00;;;;;;;;1955288;28;3587759;-71
2023/05/21 04:38:24;;;;;;;;;36.60;32.20;;;;;;;;1970286;28;3601214;-71
2023/05/21 04:39:35;;;;;;;;;31.00;24.00;;;;;;;;1945108;28;2848139;-71
2023/05/21 04:40:49;;;;;;;;;37.43;31.29;;;;;;;;1965411;28;3596065;-71
2023/05/21 04:42:00;;;;;;;;;33.00;31.50;;;;;;;;1947350;28;2842993;-71
2023/05/21 04:43:12;;;;;;;;;24.33;21.33;;;;;;;;1942803;28;3572147;-71
2023/05/21 04:44:24;;;;;;;;;35.00;31.40;;;;;;;;1971926;28;3606449;-70
2023/05/21 04:45:36;;;;;;;;;32.80;27.20;;;;;;;;1973369;28;3602756;-71
2023/05/21 04:46:49;;;;;;;;;33.71;31.14;;;;;;;;1962561;28;3573168;-71
2023/05/21 04:48:01;;;;;;;;;34.00;29.20;;;;;;;;1958554;28;3615837;-71
2023/05/21 04:49:13;;;;;;;;;36.00;30.60;;;;;;;;1949957;28;3610707;-71
2023/05/21 04:50:24;;;;;;;;;34.60;31.20;;;;;;;;1966721;28;3595424;-71
2023/05/21 04:51:36;;;;;;;;;30.80;27.60;;;;;;;;1970169;28;3596034;-71
2023/05/21 04:52:48;;;;;;;;;34.40;31.80;;;;;;;;1972762;28;3597099;-71
2023/05/21 04:54:02;;;;;;;;;32.40;31.20;;;;;;;;1974677;28;3595002;-71
2023/05/21 04:55:12;;;;;;;;;33.50;32.00;;;;;;;;1945276;28;2854417;-71
2023/05/21 04:56:28;;;;;;;;;38.40;32.20;;;;;;;;1968809;28;3600228;-71
2023/05/21 04:57:38;;;;;;;;;34.50;28.50;;;;;;;;1946186;28;2866095;-71
2023/05/21 04:58:53;;;;;;;;;31.63;26.75;;;;;;;;1969314;28;3611678;-71
2023/05/21 05:00:04;;;;;;;;;36.00;31.00;;;;;;;;1967318;28;2847165;-71
2023/05/21 05:01:14;;;;;;;;;34.00;29.00;;;;;;;;1946027;28;2858598;-71
2023/05/21 05:02:26;;;;;;;;;35.00;31.60;;;;;;;;1968180;28;3585626;-71
2023/05/21 05:03:38;;;;;;;;;37.00;30.40;;;;;;;;1994692;28;3596373;-71
2023/05/21 05:04:49;;;;;;;;;39.80;31.00;;;;;;;;1953475;28;2852500;-71
2023/05/21 05:06:03;;;;;;;;;32.00;25.60;;;;;;;;1973741;28;3581471;-71
2023/05/21 05:07:14;;;;;;;;;36.33;31.00;;;;;;;;1969207;28;3587705;-71
2023/05/21 05:08:26;;;;;;;;;34.80;29.20;;;;;;;;1971821;28;3598133;-71
2023/05/21 05:09:37;;;;;;;;;29.40;26.40;;;;;;;;1955727;28;2849277;-71
2023/05/21 05:10:48;;;;;;;;;35.20;32.00;;;;;;;;1974632;28;3589783;-71
2023/05/21 05:11:59;;;;;;;;;30.40;27.60;;;;;;;;1977964;28;2847199;-71
2023/05/21 05:13:11;;;;;;;;;38.00;32.00;;;;;;;;1973488;28;2856496;-71
2023/05/21 05:14:21;;;;;;;;;34.50;30.50;;;;;;;;1949779;28;2847165;-71
2023/05/21 05:15:33;;;;;;;;;31.60;31.00;;;;;;;;1973814;28;3600206;-71
2023/05/21 05:16:47;;;;;;;;;31.00;29.80;;;;;;;;1974603;28;3598115;-71
2023/05/21 05:17:57;;;;;;;;;33.50;29.50;;;;;;;;1948857;28;2853339;-71
2023/05/21 05:19:09;;;;;;;;;35.00;32.40;;;;;;;;1972335;28;3567970;-71
2023/05/21 05:20:21;;;;;;;;;39.20;33.00;;;;;;;;1994607;28;3619397;-71
2023/05/21 05:21:33;;;;;;;;;39.00;32.40;;;;;;;;1969865;28;3602330;-71
2023/05/21 05:22:45;;;;;;;;;35.80;32.60;;;;;;;;1965478;28;3577275;-71
2023/05/21 05:23:58;;;;;;;;;33.14;31.71;;;;;;;;1965803;28;3579426;-71
2023/05/21 05:25:10;;;;;;;;;36.40;30.80;;;;;;;;1971240;28;3587010;-71
2023/05/21 05:26:22;;;;;;;;;36.40;32.40;;;;;;;;1964197;28;3579387;-71
2023/05/21 05:27:34;;;;;;;;;36.00;31.80;;;;;;;;1966282;28;3584587;-71
2023/05/21 05:28:46;;;;;;;;;35.40;29.80;;;;;;;;1972349;28;3582477;-71
2023/05/21 05:29:57;;;;;;;;;33.20;32.00;;;;;;;;1970369;28;3608536;-71
2023/05/21 05:31:10;;;;;;;;;37.00;30.60;;;;;;;;1972551;28;3602299;-71
2023/05/21 05:32:21;;;;;;;;;29.20;27.80;;;;;;;;1961958;28;3598117;-71
2023/05/21 05:33:33;;;;;;;;;39.20;34.00;;;;;;;;1973862;28;3604402;-71
2023/05/21 05:34:46;;;;;;;;;31.86;30.00;;;;;;;;1968426;28;3595091;-71
2023/05/21 05:35:58;;;;;;;;;41.00;32.80;;;;;;;;1970292;28;3605401;-71
2023/05/21 05:37:10;;;;;;;;;32.60;25.60;;;;;;;;1971507;28;3595030;-71
2023/05/21 05:38:22;;;;;;;;;37.60;30.60;;;;;;;;1972986;28;3583586;-71
2023/05/21 05:39:34;;;;;;;;;35.40;31.20;;;;;;;;1966807;28;3596022;-71
2023/05/21 05:40:46;;;;;;;;;30.60;26.60;;;;;;;;1971840;28;3592937;-71
2023/05/21 05:41:58;;;;;;;;;38.00;31.60;;;;;;;;1972603;28;3600184;-71
2023/05/21 05:43:10;;;;;;;;;31.33;29.00;;;;;;;;1963014;28;3596074;-71
2023/05/21 05:44:22;;;;;;;;;35.20;31.40;;;;;;;;1973430;28;3574171;-71
2023/05/21 05:45:35;;;;;;;;;28.86;26.86;;;;;;;;1991433;28;3591918;-71
2023/05/21 05:46:47;;;;;;;;;34.80;29.20;;;;;;;;1974334;28;3611663;-71
2023/05/21 05:47:59;;;;;;;;;39.00;29.40;;;;;;;;1972619;28;3628308;-71
2023/05/21 05:49:12;;;;;;;;;32.20;28.80;;;;;;;;1972725;28;3599184;-71
2023/05/21 05:50:22;;;;;;;;;31.00;29.50;;;;;;;;1948298;28;2846147;-71
2023/05/21 05:51:35;;;;;;;;;30.20;29.00;;;;;;;;1971929;28;3596033;-71
2023/05/21 05:52:46;;;;;;;;;34.40;28.00;;;;;;;;1960154;28;3601289;-71
2023/05/21 05:53:59;;;;;;;;;36.29;31.57;;;;;;;;1969263;28;3608616;-71
2023/05/21 05:55:12;;;;;;;;;31.86;29.57;;;;;;;;1964190;28;3602718;-71
2023/05/21 05:56:25;;;;;;;;;30.80;28.60;;;;;;;;1961949;28;3598121;-71
2023/05/21 05:57:36;;;;;;;;;36.67;30.67;;;;;;;;1945727;28;2860627;-71
2023/05/21 05:58:47;;;;;;;;;37.00;31.00;;;;;;;;1968291;28;2853414;-71
2023/05/21 05:59:59;;;;;;;;;39.20;33.00;;;;;;;;1974285;28;3599230;-71
2023/05/21 06:01:12;;;;;;;;;38.00;32.00;;;;;;;;1964262;28;3604370;-71
2023/05/21 06:02:22;;;;;;;;;31.50;30.00;;;;;;;;1944594;28;2839834;-71
2023/05/21 06:03:34;;;;;;;;;29.40;27.60;;;;;;;;1969935;28;3601266;-71
2023/05/21 06:04:46;;;;;;;;;34.60;31.60;;;;;;;;1969450;28;3584612;-71
2023/05/21 06:05:57;;;;;;;;;29.20;25.40;;;;;;;;1951063;28;2848280;-71
2023/05/21 06:07:08;;;;;;;;;31.00;27.80;;;;;;;;1971949;28;3596038;-71
2023/05/21 06:08:20;;;;;;;;;40.60;35.20;;;;;;;;1989526;28;3614866;-71
2023/05/21 06:09:32;;;;;;;;;30.60;29.00;;;;;;;;1969623;28;3600232;-71
2023/05/21 06:10:44;;;;;;;;;37.00;30.60;;;;;;;;1969407;28;3610680;-71
2023/05/21 06:11:55;;;;;;;;;37.60;33.20;;;;;;;;1951762;28;2845222;-71
2023/05/21 06:13:06;;;;;;;;;34.60;31.60;;;;;;;;1970894;28;3582544;-71
2023/05/21 06:14:18;;;;;;;;;31.00;28.20;;;;;;;;1991072;28;3598176;-71
2023/05/21 06:15:30;;;;;;;;;36.20;29.60;;;;;;;;1969636;28;3607874;-71
2023/05/21 06:16:42;;;;;;;;;36.60;32.00;;;;;;;;1968094;28;3589827;-71
2023/05/21 06:17:54;;;;;;;;;30.40;30.40;;;;;;;;1968996;28;3584632;-71
2023/05/21 06:19:08;;;;;;;;;39.13;30.88;;;;;;;;1961116;28;3621111;-71
2023/05/21 06:20:20;;;;;;;;;30.80;27.40;;;;;;;;1968810;28;3594048;-71
2023/05/21 06:21:32;;;;;;;;;32.40;29.60;;;;;;;;1969775;28;3590873;-71
2023/05/21 06:22:44;;;;;;;;;39.80;31.60;;;;;;;;1966311;28;3618007;-71
2023/05/21 06:23:56;;;;;;;;;34.60;30.40;;;;;;;;1970544;28;3589856;-71
2023/05/21 06:25:10;;;;;;;;;31.38;27.38;;;;;;;;1962990;28;3599234;-71
2023/05/21 06:26:20;;;;;;;;;28.00;27.00;;;;;;;;1941888;28;2845121;-71
2023/05/21 06:27:32;;;;;;;;;39.00;32.80;;;;;;;;1956119;28;3585733;-71
2023/05/21 06:28:43;;;;;;;;;29.00;27.20;;;;;;;;1972272;28;2860814;-71
2023/05/21 06:29:53;;;;;;;;;31.00;28.50;;;;;;;;1967592;28;2858647;-71
2023/05/21 06:31:05;;;;;;;;;28.60;25.80;;;;;;;;1970166;28;3588844;-71
2023/05/21 06:32:17;;;;;;;;;41.00;32.60;;;;;;;;1967366;28;3612752;-71
2023/05/21 06:33:29;;;;;;;;;38.60;32.40;;;;;;;;1969177;28;3597111;-71
2023/05/21 06:34:42;;;;;;;;;38.86;34.14;;;;;;;;1964442;28;3571175;-71
2023/05/21 06:35:54;;;;;;;;;34.20;31.60;;;;;;;;1968015;28;3577311;-71
2023/05/21 06:37:05;;;;;;;;;34.60;31.80;;;;;;;;1954950;28;2845030;-71
2023/05/21 06:38:17;;;;;;;;;35.20;31.20;;;;;;;;1993025;28;3598120;-71
2023/05/21 06:39:29;;;;;;;;;31.20;29.40;;;;;;;;1995746;28;3594353;-71
2023/05/21 06:40:42;;;;;;;;;36.60;32.00;;;;;;;;1971853;28;3588751;-71
2023/05/21 06:41:53;;;;;;;;;35.50;31.50;;;;;;;;1970726;28;2848158;-71
2023/05/21 06:43:04;;;;;;;;;35.00;30.40;;;;;;;;1961309;28;3581501;-71
2023/05/21 06:44:17;;;;;;;;;35.80;29.80;;;;;;;;1972074;28;3614771;-71
2023/05/21 06:45:28;;;;;;;;;29.00;24.33;;;;;;;;1955885;28;3598153;-71
2023/05/21 06:46:41;;;;;;;;;32.80;27.00;;;;;;;;1965650;28;3600232;-71